• Join FlightAware (Why Join?)
  • Login
  • US Flag 
10:03AM EDT


 

Airport Tracker/Info


-or-


 

Live Flight TrackerFlight Track Log ✈ BER7249 ✈ 24-Apr-2013 ✈ KJFK - EDDT / TXL

Flight Track Log - Related Links

Times and Time Zones

All times are in EDT time to prevent confusion due to time zone crossing. See the BER7249 flight status page for this flight to view local times or setup timezone preferences in your user account.

Time Position Orientation Groundspeed Altitude Reporting Facility
EDT Latitude Longitude Course Direction KTS MPH feet Rate Location/Type
07:26PM 40.6300 -73.7750 118° Southeast 166 191 700  Level FlightAware
07:27PM 40.6140 -73.7500 130° Southeast 180 207 1,600 1,320 Climbing FlightAware
07:27PM 40.6060 -73.7380 131° Southeast 199 229 1,700 780 Climbing FlightAware
07:27PM 40.5990 -73.7210 118° Southeast 232 267 2,000 960 Climbing FlightAware
07:28PM 40.5980 -73.7100 97° East 254 292 2,100 1,380 Climbing FlightAware
07:28PM 40.6060 -73.6740 74° East 291 335 2,700 2,400 Climbing FlightAware
07:28PM 40.6230 -73.6340 61° Northeast 298 343 3,900 2,700 Climbing FlightAware
07:29PM 40.6390 -73.6140 43° Northeast 306 352 4,500 2,400 Climbing FlightAware
07:29PM 40.6740 -73.5790 37° Northeast 321 369 5,700 2,400 Climbing FlightAware
07:30PM 40.7030 -73.5490 38° Northeast 327 376 6,700 2,640 Climbing FlightAware
07:30PM 40.7330 -73.5170 39° Northeast 328 377 7,900 2,460 Climbing FlightAware
07:31PM 40.7710 -73.4730 41° Northeast 337 388 9,200 1,860 Climbing FlightAware
07:31PM 40.8020 -73.4390 40° Northeast 340 391 9,800 1,500 Climbing FlightAware
07:31PM 40.8430 -73.4040 33° Northeast 334 384 10,600 1,260 Climbing FlightAware
07:32PM 40.9060 -73.3970 North 366 421 11,300 1,200 Climbing FlightAware
07:33PM 40.9850 -73.3850 North 399 459 12,300 1,680 Climbing FlightAware
07:34PM 41.0610 -73.3740 North 407 468 13,700 1,920 Climbing FlightAware
07:34PM 41.1290 -73.3640 North 417 480 14,900 1,860 Climbing FlightAware
07:35PM 41.2240 -73.3510 North 428 493 16,400 1,800 Climbing FlightAware
07:36PM 41.3350 -73.3350 North 444 511 17,900 1,620 Climbing FlightAware
07:36PM 41.4050 -73.3250 North 451 519 18,900 1,200 Climbing FlightAware
07:37PM 41.5040 -73.2950 13° North 461 531 19,600 1,560 Climbing FlightAware
07:38PM 41.5510 -73.2370 43° Northeast 475 547 20,900 1,080 Climbing FlightAware
07:38PM 41.6220 -73.1730 34° Northeast 475 547 20,900  Level FlightAware
07:39PM 41.6840 -73.1170 34° Northeast 475 547 20,900 2,220 Level FlightAware
07:40PM 41.8120 -73.1930 336° Northwest 474 545 23,900 2,460 Climbing FlightAware
07:40PM 41.8990 -73.2020 356° North 481 554 24,200 180 Climbing FlightAware
07:41PM 41.9750 -73.2110 355° North 481 554 24,200 900 Level FlightAware
07:42PM 42.0990 -73.2230 356° North 495 570 25,600 1,800 Climbing FlightAware
07:43PM 42.2030 -73.2320 356° North 505 581 26,900 1,200 Climbing FlightAware
07:43PM 42.2920 -73.2390 357° North 27,700 900 Climbing FlightAware
07:44PM 42.3780 -73.2310 North 515 593 28,400 900 Climbing FlightAware
07:45PM 42.4690 -73.2040 12° North 527 606 29,100 960 Climbing FlightAware
07:46PM 42.6280 -73.1030 25° Northeast 537 618 29,900 1,020 Climbing FlightAware
07:47PM 42.7340 -72.9810 40° Northeast 536 617 30,800 1,020 Climbing FlightAware
07:47PM 42.8000 -72.8810 48° Northeast 531 611 31,600 1,200 Climbing FlightAware
07:48PM 42.8710 -72.8260 30° Northeast 518 596 32,300 1,080 Climbing FlightAware
07:49PM 42.9810 -72.7620 23° Northeast 515 593 33,200 840 Climbing FlightAware
07:49PM 43.0510 -72.6960 35° Northeast 524 603 33,600 600 Climbing FlightAware
07:50PM 43.1230 -72.5600 54° Northeast 528 608 34,100 600 Climbing FlightAware
07:51PM 43.1780 -72.4490 56° Northeast 531 611 34,500 720 Climbing FlightAware
07:51PM 43.2320 -72.3400 56° Northeast 527 606 35,100 600 Climbing FlightAware
07:52PM 43.2930 -72.2180 55° Northeast 532 612 35,400 540 Climbing FlightAware
07:53PM 43.3480 -72.1060 56° Northeast 529 609 35,900 660 Climbing FlightAware
07:54PM 43.4100 -71.9780 56° Northeast 529 609 36,400 540 Climbing FlightAware
07:54PM 43.4660 -71.8650 56° Northeast 531 611 36,700 420 Climbing FlightAware
07:55PM 43.5190 -71.7550 56° Northeast 519 597 37,000 180 Climbing FlightAware
07:56PM 43.5780 -71.6320 56° Northeast 515 593 37,000  Level FlightAware
07:56PM 43.6300 -71.5260 56° Northeast 511 588 37,000  Level FlightAware
07:57PM 43.6890 -71.4020 57° Northeast 504 580 37,000  Level FlightAware
07:58PM 43.7410 -71.2950 56° Northeast 508 585 37,000  Level FlightAware
07:58PM 43.7920 -71.1870 57° Northeast 515 593 37,000  Level FlightAware
07:59PM 43.8500 -71.0640 57° Northeast 514 592 37,000  Level FlightAware
08:00PM 43.9020 -70.9550 56° Northeast 510 587 37,000  Level FlightAware
08:01PM 43.9610 -70.8300 57° Northeast 500 575 37,000  Level FlightAware
08:01PM 44.0120 -70.7220 57° Northeast 500 575 37,000  Level FlightAware
08:02PM 44.0620 -70.6150 57° Northeast 490 564 37,000  Level FlightAware
08:03PM 44.1150 -70.5000 57° Northeast 482 555 37,000  Level FlightAware
08:03PM 44.1620 -70.4000 57° Northeast 481 554 37,000  Level FlightAware
08:04PM 44.2170 -70.2810 57° Northeast 482 555 37,000  Level FlightAware
08:05PM 44.2660 -70.1740 57° Northeast 480 552 37,000  Level FlightAware
08:06PM 44.3190 -70.0590 57° Northeast 479 551 37,000  Level FlightAware
08:06PM 44.3670 -69.9540 57° Northeast 477 549 37,000  Level FlightAware
08:07PM 44.4140 -69.8520 57° Northeast 475 547 37,000  Level FlightAware
08:08PM 44.4680 -69.7320 58° Northeast 476 548 37,000  Level FlightAware
08:08PM 44.5140 -69.6290 58° Northeast 477 549 37,000  Level FlightAware
08:09PM 44.5670 -69.5140 57° Northeast 484 557 37,000  Level FlightAware
08:10PM 44.6150 -69.4060 58° Northeast 486 559 37,000  Level FlightAware
08:10PM 44.6620 -69.3000 58° Northeast 485 558 37,000  Level FlightAware
08:11PM 44.7100 -69.1940 57° Northeast 481 554 37,000  Level FlightAware
08:12PM 44.7630 -69.0720 59° Northeast 481 554 37,000  Level FlightAware
08:12PM 44.8090 -68.9680 58° Northeast 480 552 37,000  Level FlightAware
08:13PM 44.8620 -68.8490 58° Northeast 481 554 37,000  Level FlightAware
08:14PM 44.9100 -68.7380 59° Northeast 483 556 37,000  Level FlightAware
08:15PM 44.9550 -68.6350 58° Northeast 487 560 37,000  Level FlightAware
08:15PM 45.0080 -68.5140 58° Northeast 488 562 37,000  Level FlightAware
08:16PM 45.0560 -68.4030 58° Northeast 488 562 37,000  Level FlightAware
08:17PM 45.1100 -68.2780 58° Northeast 486 559 37,000  Level FlightAware
08:17PM 45.1550 -68.1740 58° Northeast 487 560 37,000  Level FlightAware
08:18PM 45.2010 -68.0670 59° Northeast 490 564 37,000  Level FlightAware
08:19PM 45.2540 -67.9420 59° Northeast 487 560 37,000  Level FlightAware
08:19PM 45.3070 -67.8380 54° Northeast 482 555 37,000  Level FlightAware
08:20PM 45.3760 -67.7360 46° Northeast 474 545 37,000  Level FlightAware
08:21PM 45.4440 -67.6600 38° Northeast 470 541 37,000  Level FlightAware
08:21PM 45.5100 -67.6050 30° Northeast 469 540 37,000  Level FlightAware
08:22PM 45.5830 -67.5540 26° Northeast 467 537 37,000  Level FlightAware
08:23PM 45.6840 -67.4810 27° Northeast 459 528 37,000  Level FlightAware
08:24PM 45.7600 -67.4240 28° Northeast 456 525 37,000  Level FlightAware
08:24PM 45.8450 -67.3600 28° Northeast 457 526 37,000  Level FlightAware
08:25PM 45.9220 -67.3010 28° Northeast 457 526 37,000  Level FlightAware
08:26PM 45.9970 -67.2440 28° Northeast 456 525 37,000  Level FlightAware
08:26PM 46.0770 -67.1830 28° Northeast 456 525 37,000  Level FlightAware
08:27PM 46.1590 -67.1200 28° Northeast 463 533 37,000  Level FlightAware
08:28PM 46.2420 -67.0560 28° Northeast 463 533 37,000  Level FlightAware
08:29PM 46.3370 -66.9830 28° Northeast 463 533 37,000  Level FlightAware
08:29PM 46.4130 -66.9240 28° Northeast 463 533 37,000  Level FlightAware
08:30PM 46.4770 -66.8750 28° Northeast 463 533 37,000  Level FlightAware
08:31PM 46.5410 -66.8250 28° Northeast 463 533 37,000  Level FlightAware
08:31PM 46.6060 -66.7750 28° Northeast 463 533 37,000  Level FlightAware
08:32PM 46.6860 -66.7130 28° Northeast 463 533 37,000  Level FlightAware
08:33PM 46.7500 -66.6630 28° Northeast 463 533 37,000  Level FlightAware
08:34PM 46.8150 -66.6130 28° Northeast 463 533 37,000  Level FlightAware
08:34PM 46.8790 -66.5630 28° Northeast 463 533 37,000  Level FlightAware
08:35PM 46.9590 -66.5010 28° Northeast 463 533 37,000  Level FlightAware
08:36PM 47.0240 -66.4500 28° Northeast 463 533 37,000  Level FlightAware
08:36PM 47.0880 -66.4000 28° Northeast 463 533 37,000  Level FlightAware
08:37PM 47.1520 -66.3500 28° Northeast 463 533 37,000  Level FlightAware
08:38PM 47.2330 -66.2870 28° Northeast 463 533 37,000  Level FlightAware
08:39PM 47.2970 -66.2370 28° Northeast 463 533 37,000  Level FlightAware
08:39PM 47.5167 -66.0333 28° Northeast 480 552 37,000  Level Gander Center
08:40PM 47.6333 -65.9500 26° Northeast 480 552 37,000  Level Gander Center
08:41PM 47.7167 -65.8500 39° Northeast 480 552 37,000  Level Gander Center
08:42PM 47.8333 -65.7667 26° Northeast 480 552 37,000  Level Gander Center
08:43PM 47.9667 -65.6667 27° Northeast 490 564 37,000  Level Gander Center
08:44PM 48.0667 -65.5833 29° Northeast 480 552 37,000  Level Gander Center
08:45PM 48.1833 -65.4667 34° Northeast 490 564 37,000  Level Gander Center
08:46PM 48.3000 -65.3833 25° Northeast 490 564 37,000  Level Gander Center
08:47PM 48.4333 -65.2667 30° Northeast 490 564 37,000  Level Gander Center
08:48PM 48.5500 -65.1667 30° Northeast 490 564 37,000  Level Gander Center
08:49PM 48.6500 -65.0833 29° Northeast 490 564 37,000  Level Gander Center
08:50PM 48.7833 -64.9667 30° Northeast 490 564 37,000  Level Gander Center
08:51PM 48.9000 -64.8667 29° Northeast 490 564 37,000  Level Gander Center
08:52PM 49.0333 -64.7500 30° Northeast 490 564 37,000  Level Gander Center
08:53PM 49.1333 -64.6500 33° Northeast 490 564 37,000  Level Gander Center
08:54PM 49.2667 -64.5333 30° Northeast 490 564 37,000  Level Gander Center
08:55PM 49.3667 -64.4333 33° Northeast 490 564 37,000  Level Gander Center
08:56PM 49.5000 -64.3500 22° Northeast 490 564 37,000  Level Gander Center
08:57PM 49.6167 -64.2167 37° Northeast 500 575 37,000  Level Gander Center
08:58PM 49.7333 -64.1333 25° Northeast 500 575 37,000  Level Gander Center
08:59PM 49.8500 -64.0000 36° Northeast 500 575 37,000  Level Gander Center
09:00PM 49.9667 -63.9000 29° Northeast 490 564 37,000  Level Gander Center
09:01PM 50.1000 -63.8167 22° Northeast 500 575 37,000  Level Gander Center
09:02PM 50.2167 -63.6833 36° Northeast 500 575 37,000  Level Gander Center
09:03PM 50.3333 -63.5833 29° Northeast 500 575 37,000  Level Gander Center
09:04PM 50.4500 -63.4667 32° Northeast 500 575 37,000  Level Gander Center
09:05PM 50.5833 -63.3667 25° Northeast 500 575 37,000  Level Gander Center
09:06PM 50.6833 -63.2333 40° Northeast 510 587 37,000  Level Gander Center
09:07PM 50.8167 -63.1333 25° Northeast 500 575 37,000  Level Gander Center
09:08PM 50.9500 -63.0000 32° Northeast 510 587 37,000  Level Gander Center
09:09PM 51.0667 -62.9000 28° Northeast 510 587 37,000  Level Gander Center
09:10PM 51.1833 -62.7833 32° Northeast 510 587 37,000  Level Gander Center
09:11PM 51.3000 -62.6667 32° Northeast 500 575 37,000  Level Gander Center
09:12PM 51.4167 -62.5500 32° Northeast 510 587 37,000  Level Gander Center
09:13PM 51.5500 -62.4167 32° Northeast 520 598 37,000  Level Gander Center
09:14PM 51.6667 -62.3000 32° Northeast 520 598 37,000  Level Gander Center
09:15PM 51.7833 -62.1667 35° Northeast 520 598 37,000  Level Gander Center
09:16PM 51.9000 -62.0333 35° Northeast 510 587 37,000  Level Gander Center
09:17PM 52.0167 -61.9333 28° Northeast 510 587 37,000  Level Gander Center
09:18PM 52.1500 -61.8000 32° Northeast 510 587 37,000  Level Gander Center
09:19PM 52.2667 -61.7000 28° Northeast 500 575 37,000  Level Gander Center
09:20PM 52.3833 -61.5500 38° Northeast 500 575 37,000  Level Gander Center
09:21PM 52.5000 -61.4000 38° Northeast 510 587 37,000  Level Gander Center
09:22PM 52.6167 -61.2500 38° Northeast 510 587 37,000  Level Gander Center
09:23PM 52.7167 -61.1167 39° Northeast 510 587 37,000  Level Gander Center
09:24PM 52.8333 -60.9500 41° Northeast 500 575 37,000  Level Gander Center
09:25PM 52.9333 -60.8167 39° Northeast 500 575 37,000  Level Gander Center
09:26PM 53.0333 -60.6667 42° Northeast 490 564 37,000  Level Gander Center
09:27PM 53.1500 -60.5333 34° Northeast 490 564 37,000  Level Gander Center
09:29PM 53.3500 -60.2167 43° Northeast 490 564 37,000  Level Moncton Center
09:30PM 53.4500 -60.0667 42° Northeast 490 564 37,000  Level Gander Center
09:31PM 53.5500 -59.9333 38° Northeast 490 564 37,000  Level Gander Center
09:32PM 53.6500 -59.7833 42° Northeast 490 564 37,000  Level Gander Center
09:33PM 53.7667 -59.6500 34° Northeast 490 564 37,000  Level Gander Center
09:34PM 53.8667 -59.5000 41° Northeast 490 564 37,000  Level Gander Center
09:35PM 53.9667 -59.3500 41° Northeast 490 564 37,000  Level Gander Center
09:36PM 54.0667 -59.2000 41° Northeast 490 564 37,000  Level Gander Center
09:37PM 54.1833 -59.0333 40° Northeast 490 564 37,000  Level Gander Center
09:38PM 54.2833 -58.9000 38° Northeast 490 564 37,000  Level Gander Center
09:39PM 54.3833 -58.7333 44° Northeast 490 564 37,000  Level Gander Center
09:40PM 54.4833 -58.5833 41° Northeast 480 552 37,000  Level Gander Center
09:41PM 54.6000 -58.4333 37° Northeast 490 564 37,000  Level Gander Center
09:42PM 54.7000 -58.2667 44° Northeast 490 564 37,000  Level Gander Center
09:43PM 54.8000 -58.1167 41° Northeast 490 564 37,000  Level Gander Center
09:44PM 54.8833 -57.9333 52° Northeast 490 564 37,000  Level Gander Center
09:45PM 55.0000 -57.8167 30° Northeast 490 564 37,000  Level Gander Center
09:46PM 55.1000 -57.6333 46° Northeast 490 564 37,000  Level Gander Center
09:47PM 55.2000 -57.4833 41° Northeast 490 564 37,000  Level Gander Center
09:48PM 55.3000 -57.3167 43° Northeast 490 564 37,000  Level Gander Center
09:49PM 55.4000 -57.1667 40° Northeast 490 564 37,000  Level Gander Center
09:50PM 55.5000 -56.9833 46° Northeast 490 564 37,000  Level Gander Center
09:51PM 55.5667 -56.7667 61° Northeast 510 587 37,000  Level Gander Center
09:52PM 55.6333 -56.5500 61° Northeast 510 587 37,000  Level Gander Center
09:53PM 55.6833 -56.2667 73° East 520 598 37,000  Level Gander Center
09:54PM 55.7500 -56.0500 61° Northeast 520 598 37,000  Level Gander Center
09:55PM 55.8000 -55.8167 69° East 520 598 37,000  Level Gander Center
09:56PM 55.8500 -55.6000 68° East 510 587 37,000  Level Gander Center
09:57PM 55.9000 -55.3500 70° East 520 598 37,000  Level Gander Center
09:58PM 55.9500 -55.1000 70° East 520 598 37,000  Level Gander Center
09:59PM 56.0000 -54.8333 71° East 520 598 37,000  Level Gander Center
10:00PM 56.0500 -54.6333 66° East 530 610 37,000  Level Gander Center
10:01PM 56.1000 -54.3833 70° East 530 610 37,000  Level Gander Center
10:02PM 56.1500 -54.1333 70° East 520 598 37,000  Level Gander Center
10:03PM 56.2000 -53.8833 70° East 530 610 37,000  Level Gander Center
10:04PM 56.2500 -53.6333 70° East 530 610 37,000  Level Gander Center
10:05PM 56.3167 -53.4167 61° Northeast 520 598 37,000  Level Gander Center
10:06PM 56.3667 -53.2000 67° East 510 587 37,000  Level Gander Center
10:07PM 56.4167 -52.9333 71° East 520 598 37,000  Level Gander Center
10:08PM 56.4667 -52.6833 70° East 520 598 37,000  Level Gander Center
10:09PM 56.5167 -52.4333 70° East 530 610 37,000  Level Gander Center
10:10PM 56.5833 -52.1500 67° East 520 598 37,000  Level Gander Center
10:11PM 56.6333 -51.8833 71° East 520 598 37,000  Level Gander Center
10:13PM 56.7046 -51.5311 70° East  Level FlightAware Approximate
10:18PM 56.9500 -50.1167 76° East 520 598 37,000  Level Gander Center
10:19PM 56.9833 -49.8500 77° East 530 610 37,000  Level Gander Center
10:20PM 57.0182 -49.8668 76° East  Level FlightAware Approximate
10:21PM 57.0514 -49.6216 76° East  Level FlightAware Approximate
10:21PM 57.0395 -49.4724 75° East  Level FlightAware Approximate
10:21PM 57.0833 -49.2667 75° East 530 610 37,000  Level Gander Center
10:22PM 57.0840 -49.3759 76° East  Level FlightAware Approximate
10:22PM 57.1000 -48.9833 84° East 530 610 37,000  Level Gander Center
10:23PM 57.1162 -49.1297 76° East  Level FlightAware Approximate
10:23PM 57.1500 -48.7167 71° East 530 610 37,000  Level Gander Center
10:24PM 57.1667 -48.4667 83° East 530 610 37,000  Level Gander Center
10:25PM 57.2167 -48.2000 71° East 530 610 37,000  Level Gander Center
10:26PM 57.2500 -47.9333 77° East 530 610 37,000  Level Gander Center
10:27PM 57.2833 -47.6667 77° East 530 610 37,000  Level Gander Center
10:28PM 57.3167 -47.4167 76° East 530 610 37,000  Level Gander Center
10:29PM 57.3333 -47.1500 83° East 530 610 37,000  Level Gander Center
10:30PM 57.3667 -46.8500 78° East 530 610 37,000  Level Gander Center
10:31PM 57.4167 -46.5833 71° East 530 610 37,000  Level Gander Center
10:32PM 57.4333 -46.3333 83° East 530 610 37,000  Level Gander Center
10:33PM 57.4667 -46.0667 77° East 530 610 37,000  Level Gander Center
10:34PM 57.4833 -45.8000 83° East 530 610 37,000  Level Gander Center
10:35PM 57.5167 -45.5333 77° East 530 610 37,000  Level Gander Center
10:36PM 57.5333 -45.2667 83° East 520 598 37,000  Level Gander Center
10:37PM 57.5833 -45.0000 71° East 530 610 37,000  Level Gander Center
10:38PM 57.6000 -44.7333 83° East 520 598 37,000  Level Gander Center
10:39PM 57.6333 -44.4667 77° East 520 598 37,000  Level Gander Center
10:40PM 57.6500 -44.2000 83° East 520 598 37,000  Level Gander Center
10:41PM 57.6833 -43.9667 75° East 520 598 37,000  Level Gander Center
10:42PM 57.7000 -43.7000 83° East 520 598 37,000  Level Gander Center
10:43PM 57.7333 -43.4333 77° East 520 598 37,000  Level Gander Center
10:44PM 57.7333 -43.1667 90° East 520 598 37,000  Level Gander Center
10:45PM 57.7667 -42.9000 77° East 510 587 37,000  Level Gander Center
10:46PM 57.7833 -42.6333 83° East 520 598 37,000  Level Gander Center
10:47PM 57.8167 -42.3667 77° East 520 598 37,000  Level Gander Center
10:48PM 57.8167 -42.1000 90° East 520 598 37,000  Level Gander Center
10:49PM 57.8333 -41.8333 83° East 520 598 37,000  Level Gander Center
10:50PM 57.8667 -41.6000 75° East 520 598 37,000  Level Gander Center
10:51PM 57.8833 -41.3333 83° East 520 598 37,000  Level Gander Center
10:52PM 57.9000 -41.0500 84° East 520 598 37,000  Level Gander Center
10:53PM 57.9167 -40.7833 83° East 520 598 37,000  Level Gander Center
10:54PM 57.9333 -40.5167 83° East 520 598 37,000  Level Gander Center
10:55PM 57.9500 -40.2500 83° East 520 598 37,000  Level Gander Center
10:56PM 57.9667 -39.9833 83° East 520 598 37,000  Level Gander Center
10:57PM 57.9833 -39.7167 83° East 520 598 37,000  Level Gander Center
10:58PM 57.9833 -39.4500 90° East 530 610 37,000  Level Gander Center
10:59PM 58.0000 -39.1667 84° East 530 610 37,000  Level Gander Center
11:00PM 58.0167 -38.9000 83° East 530 610 37,000  Level Gander Center
11:01PM 58.0167 -38.6167 90° East 530 610 37,000  Level Gander Center
11:02PM 58.0167 -38.3500 90° East 530 610 37,000  Level Gander Center
11:03PM 58.0333 -38.0667 84° East 530 610 37,000  Level Gander Center
11:04PM 58.0333 -37.8000 90° East 520 598 37,000  Level Gander Center
11:05PM 58.0333 -37.5333 90° East 520 598 37,000  Level Gander Center
11:06PM 58.0500 -37.2833 83° East 520 598 37,000  Level Gander Center
11:07PM 58.0500 -37.0167 90° East 520 598 37,000 120 Level Gander Center
11:08PM 58.0667 -36.7333 84° East 520 598 37,300 420 Climbing Gander Center
11:09PM 58.0667 -36.4667 90° East 530 610 37,900 420 Climbing Gander Center
11:10PM 58.0500 -36.1667 96° East 530 610 38,200 540 Climbing Gander Center
11:11PM 58.0500 -35.9167 90° East 530 610 39,000  Climbing Gander Center
11:13PM 58.0543 -35.5967 88° East  Level FlightAware Approximate
11:20PM 58.0636 -33.7799 89° East  Level FlightAware Approximate
11:21PM 58.0628 -33.5203 90° East  Level FlightAware Approximate
11:22PM 58.0615 -33.2607 90° East  Level FlightAware Approximate
11:23PM 58.0597 -33.0012 91° East  Level FlightAware Approximate
11:24PM 58.0573 -32.7416 91° East  Level FlightAware Approximate
11:25PM 58.0544 -32.4822 91° East  Level FlightAware Approximate
11:26PM 58.0510 -32.2227 91° East  Level FlightAware Approximate
11:27PM 58.0471 -31.9634 92° East  Level FlightAware Approximate
11:28PM 58.0426 -31.7041 92° East  Level FlightAware Approximate
11:29PM 58.0376 -31.4448 92° East  Level FlightAware Approximate
11:30PM 58.0321 -31.1856 92° East  Level FlightAware Approximate
11:31PM 58.0260 -30.9265 92° East  Level FlightAware Approximate
11:32PM 58.0194 -30.6675 93° East  Level FlightAware Approximate
11:33PM 58.0123 -30.4087 93° East  Level FlightAware Approximate
11:34PM 58.0047 -30.1499 93° East  Level FlightAware Approximate
11:35PM 58.0031 -29.8921 87° East  Level FlightAware Approximate
11:36PM 58.0101 -29.6333 87° East  Level FlightAware Approximate
11:37PM 58.0165 -29.3743 87° East  Level FlightAware Approximate
11:38PM 58.0225 -29.1153 87° East  Level FlightAware Approximate
11:39PM 58.0279 -28.8562 88° East  Level FlightAware Approximate
11:40PM 58.0328 -28.5970 88° East  Level FlightAware Approximate
11:41PM 58.0399 -28.3380 87° East  Level FlightAware Approximate
11:42PM 58.0469 -28.0789 87° East  Level FlightAware Approximate
11:43PM 58.0533 -27.8197 87° East  Level FlightAware Approximate
11:44PM 58.0593 -27.5604 87° East  Level FlightAware Approximate
11:45PM 58.0647 -27.3010 88° East  Level FlightAware Approximate
11:46PM 58.0695 -27.0416 88° East  Level FlightAware Approximate
11:47PM 58.0739 -26.7820 88° East  Level FlightAware Approximate
11:48PM 58.0777 -26.5225 88° East  Level FlightAware Approximate
11:49PM 58.0810 -26.2628 89° East  Level FlightAware Approximate
11:50PM 58.0837 -26.0032 89° East  Level FlightAware Approximate
11:51PM 58.0859 -25.7435 89° East  Level FlightAware Approximate
11:52PM 58.0877 -25.4837 89° East  Level FlightAware Approximate
11:53PM 58.0888 -25.2240 89° East  Level FlightAware Approximate
11:54PM 58.0895 -24.9642 90° East  Level FlightAware Approximate
11:55PM 58.0896 -24.7044 90° East  Level FlightAware Approximate
11:56PM 58.0891 -24.4446 90° East  Level FlightAware Approximate
11:57PM 58.0882 -24.1849 90° East  Level FlightAware Approximate
11:58PM 58.0867 -23.9251 91° East  Level FlightAware Approximate
11:59PM 58.0847 -23.6654 91° East  Level FlightAware Approximate
12:00AM 58.0822 -23.4057 91° East  Level FlightAware Approximate
12:01AM 58.0792 -23.1460 91° East  Level FlightAware Approximate
12:02AM 58.0756 -22.8864 91° East  Level FlightAware Approximate
12:03AM 58.0715 -22.6269 92° East  Level FlightAware Approximate
12:04AM 58.0668 -22.3674 92° East  Level FlightAware Approximate
12:05AM 58.0616 -22.1080 92° East  Level FlightAware Approximate
12:06AM 58.0560 -21.8487 92° East  Level FlightAware Approximate
12:07AM 58.0497 -21.5895 92° East  Level FlightAware Approximate
12:08AM 58.0430 -21.3303 93° East  Level FlightAware Approximate
12:09AM 58.0357 -21.0713 93° East  Level FlightAware Approximate
12:10AM 58.0279 -20.8123 93° East  Level FlightAware Approximate
12:11AM 58.0196 -20.5535 93° East  Level FlightAware Approximate
12:12AM 58.0107 -20.2948 94° East  Level FlightAware Approximate
12:13AM 58.0014 -20.0362 94° East  Level FlightAware Approximate
12:14AM 57.9961 -19.7773 92° East  Level FlightAware Approximate
12:15AM 57.9910 -19.5184 92° East  Level FlightAware Approximate
12:16AM 57.9854 -19.2596 92° East  Level FlightAware Approximate
12:17AM 57.9793 -19.0008 92° East  Level FlightAware Approximate
12:18AM 57.9727 -18.7422 93° East  Level FlightAware Approximate
12:19AM 57.9655 -18.4836 93° East  Level FlightAware Approximate
12:20AM 57.9579 -18.2252 93° East  Level FlightAware Approximate
12:21AM 57.9497 -17.9669 93° East  Level FlightAware Approximate
12:22AM 57.9409 -17.7087 94° East  Level FlightAware Approximate
12:23AM 57.9317 -17.4506 94° East  Level FlightAware Approximate
12:24AM 57.9219 -17.1926 94° East  Level FlightAware Approximate
12:25AM 57.9116 -16.9348 94° East  Level FlightAware Approximate
12:26AM 57.9008 -16.6772 94° East  Level FlightAware Approximate
12:27AM 57.8895 -16.4197 95° East  Level FlightAware Approximate
12:28AM 57.8776 -16.1624 95° East  Level FlightAware Approximate
12:29AM 57.8652 -15.9052 95° East  Level FlightAware Approximate
12:30AM 57.8523 -15.6482 95° East  Level FlightAware Approximate
12:31AM 57.8389 -15.3915 95° East  Level FlightAware Approximate
12:32AM 57.8250 -15.1349 96° East  Level FlightAware Approximate
12:33AM 57.8105 -14.8785 96° East  Level FlightAware Approximate
12:34AM 57.7955 -14.6223 96° East  Level FlightAware Approximate
12:35AM 57.7800 -14.3664 96° East  Level FlightAware Approximate
12:36AM 57.7640 -14.1106 97° East  Level FlightAware Approximate
12:36AM 58.0600 -12.6340 97° East 39,000  Level FlightAware
12:37AM 57.7475 -13.8551 97° East  Level FlightAware Approximate
12:37AM 58.0580 -12.5340 92° East 531 611 39,000  Level FlightAware
12:37AM 58.0540 -12.3320 92° East 530 610 39,000  Level FlightAware
12:38AM 58.0490 -12.1360 93° East 526 605 39,000  Level FlightAware
12:40AM 58.0410 -11.7370 92° East 526 605 39,000  Level FlightAware
12:40AM 58.0340 -11.5260 93° East 529 609 39,000  Level FlightAware
12:41AM 58.0280 -11.3050 93° East 530 610 39,000  Level FlightAware
12:42AM 58.0220 -11.1180 93° East 532 612 39,000  Level FlightAware
12:43AM 58.0170 -10.9380 93° East 534 615 39,000  Level FlightAware
12:43AM 58.0100 -10.7250 93° East 536 617 39,000  Level FlightAware
12:44AM 58.0030 -10.5360 94° East 537 618 39,000  Level FlightAware
12:45AM 57.9980 -10.3500 93° East 539 620 39,000  Level FlightAware
12:45AM 58.0020 -10.1390 88° East 538 619 39,000  Level FlightAware
12:46AM 57.9930 -9.9490 95° East 528 608 39,000  Level FlightAware
12:47AM 57.9700 -9.7460 102° East 528 608 39,000  Level FlightAware
12:47AM 57.9480 -9.5640 103° East 529 609 39,000  Level FlightAware
12:48AM 57.9240 -9.3710 103° East 528 608 39,000  Level FlightAware
12:49AM 57.9020 -9.1860 103° East 527 606 39,000  Level FlightAware
12:50AM 57.8800 -9.0140 103° East 524 603 39,000 -2,100 Level FlightAware
12:50AM 57.8754 -8.9767 103° East 480 552 37,500 -5,640 Descending FlightAware UK
12:50AM 57.8687 -8.9253 103° East 480 552 37,500  Level FlightAware UK
12:50AM 57.8584 -8.8457 104° East 476 548 37,500 3,720 Level FlightAware UK
12:50AM 57.8560 -8.8280 104° East 523 602 39,000  Climbing FlightAware
12:51AM 57.8449 -8.7395 104° East 478 550 37,500 -2,520 Descending FlightAware UK
12:51AM 57.8346 -8.6598 104° East 480 552 37,500 3,300 Level FlightAware UK
12:51AM 57.8310 -8.6300 104° East 528 608 39,000  Climbing FlightAware
12:51AM 57.8210 -8.5532 104° East 482 555 37,500 -2,760 Descending FlightAware UK
12:52AM 57.8106 -8.4728 104° East 482 555 37,500  Level FlightAware UK
12:52AM 57.7999 -8.3923 104° East 480 552 37,500 4,080 Level FlightAware UK
12:52AM 57.8010 -8.4020 104° East 528 608 39,000  Climbing FlightAware
12:52AM 57.7857 -8.2849 104° East 480 552 37,500 -2,400 Descending FlightAware UK
12:53AM 57.7751 -8.2046 104° East 482 555 37,500 3,600 Level FlightAware UK
12:53AM 57.7750 -8.2030 104° East 532 612 39,000  Climbing FlightAware
12:53AM 57.7606 -8.0968 104° East 480 552 37,500 -2,580 Descending FlightAware UK
12:53AM 57.7499 -8.0165 104° East 488 562 37,500 3,900 Level FlightAware UK
12:53AM 57.7490 -8.0120 104° East 533 613 39,000  Climbing FlightAware
12:54AM 57.7357 -7.9095 104° East 486 559 37,500 -2,460 Descending FlightAware UK
12:54AM 57.7249 -7.8296 104° East 486 559 37,500 3,420 Level FlightAware UK
12:54AM 57.7220 -7.8110 104° East 529 609 39,000  Climbing FlightAware
12:54AM 57.7102 -7.7236 104° East 482 555 37,500 -2,700 Descending FlightAware UK
12:55AM 57.6992 -7.6443 105° East 482 555 37,500 3,720 Level FlightAware UK
12:55AM 57.6980 -7.6360 105° East 528 608 39,000  Climbing FlightAware
12:55AM 57.6845 -7.5378 105° East 482 555 37,500 -2,520 Descending FlightAware UK
12:55AM 57.6734 -7.4587 105° East 480 552 37,500 4,080 Level FlightAware UK
12:55AM 57.6730 -7.4560 105° East 528 608 39,000  Climbing FlightAware
12:56AM 57.6587 -7.3533 105° East 482 555 37,500 -2,400 Descending FlightAware UK
12:56AM 57.6478 -7.2741 104° East 484 557 37,500 3,600 Level FlightAware UK
12:56AM 57.6450 -7.2560 104° East 526 605 39,000  Climbing FlightAware
12:56AM 57.6327 -7.1687 104° East 484 557 37,500 -2,580 Descending FlightAware UK
12:57AM 57.6213 -7.0888 105° East 482 555 37,500 3,900 Level FlightAware UK
12:57AM 57.6200 -7.0810 105° East 525 604 39,000  Climbing FlightAware
12:57AM 57.6062 -6.9846 105° East 484 557 37,500 -2,460 Descending FlightAware UK
12:57AM 57.5948 -6.9052 105° East 482 555 37,500 4,260 Level FlightAware UK
12:57AM 57.5950 -6.9040 105° East 524 603 39,000  Climbing FlightAware
12:58AM 57.5836 -6.8275 105° East 480 552 37,500 -2,760 Descending FlightAware UK
12:58AM 57.5721 -6.7484 105° East 482 555 37,500 3,000 Level FlightAware UK
12:58AM 57.5670 -6.7110 105° East 522 601 39,000  Climbing FlightAware
12:59AM 57.5531 -6.6182 105° East 480 552 37,500 -2,520 Descending FlightAware UK
12:59AM 57.5415 -6.5403 105° East 482 555 37,500  Level FlightAware UK
12:59AM 57.5299 -6.4624 105° East 482 555 37,500 4,680 Level FlightAware UK
12:59AM 57.5310 -6.4680 105° East 523 602 39,000  Climbing FlightAware
12:59AM 57.5182 -6.3843 105° East 478 550 37,500 -2,580 Descending FlightAware UK
01:00AM 57.5065 -6.3062 106° East 476 548 37,500 3,900 Level FlightAware UK
01:00AM 57.5040 -6.2930 106° East 524 603 39,000  Climbing FlightAware
01:00AM 57.4907 -6.2013 106° East 480 552 37,500 -2,460 Descending FlightAware UK
01:00AM 57.4790 -6.1238 106° East 482 555 37,500  Level FlightAware UK
01:01AM 57.4670 -6.0444 106° East 478 550 37,500 3,900 Level FlightAware UK
01:01AM 57.4680 -6.0500 106° East 529 609 39,000  Climbing FlightAware
01:01AM 57.4510 -5.9404 106° East 480 552 37,500  Descending FlightAware UK
01:01AM 57.4480 -5.9190 106° East 530 610 39,000  Climbing FlightAware
01:01AM 57.4387 -5.8609 106° East 482 555 37,500 -4,500 Descending FlightAware UK
01:02AM 57.4306 -5.8084 106° East 482 555 37,500  Level FlightAware UK
01:02AM 57.4186 -5.7306 106° East 480 552 37,500  Level FlightAware UK
01:02AM 57.4062 -5.6511 106° East 482 555 37,500  Level FlightAware UK
01:03AM 57.3939 -5.5723 106° East 482 555 37,500 4,680 Level FlightAware UK
01:03AM 57.3960 -5.5890 106° East 533 613 39,000  Climbing FlightAware
01:03AM 57.3818 -5.4944 106° East 484 557 37,500 -2,700 Descending FlightAware UK
01:03AM 57.3693 -5.4159 106° East 482 555 37,500  Level FlightAware UK
01:03AM 57.3566 -5.3367 106° East 480 552 37,500  Level FlightAware UK
01:04AM 57.3442 -5.2585 106° East 482 555 37,500 4,080 Level FlightAware UK
01:04AM 57.3450 -5.2630 106° East 528 608 39,000  Climbing FlightAware
01:04AM 57.3275 -5.1545 106° East 478 550 37,500 -2,460 Descending FlightAware UK
01:04AM 57.3151 -5.0775 107° East 478 550 37,500 3,600 Level FlightAware UK
01:05AM 57.3130 -5.0630 107° East 527 606 39,000  Climbing FlightAware
01:05AM 57.2983 -4.9738 107° East 480 552 37,500 -2,580 Descending FlightAware UK
01:05AM 57.2856 -4.8952 107° East 480 552 37,500 4,680 Level FlightAware UK
01:05AM 57.2880 -4.9100 107° East 528 608 39,000  Climbing FlightAware
01:05AM 57.2728 -4.8174 107° East 480 552 37,500 -2,520 Descending FlightAware UK
01:06AM 57.2599 -4.7396 107° East 480 552 37,500 2,760 Level FlightAware UK
01:06AM 57.2520 -4.6920 107° East 528 608 39,000  Climbing FlightAware
01:06AM 57.2385 -4.6099 107° East 480 552 37,500 -2,700 Descending FlightAware UK
01:07AM 57.2256 -4.5322 107° East 480 552 37,500 3,720 Level FlightAware UK
01:07AM 57.2240 -4.5200 107° East 528 608 39,000  Climbing FlightAware
01:07AM 57.2083 -4.4287 107° East 478 550 37,500 -2,520 Descending FlightAware UK
01:07AM 57.1953 -4.3513 107° East 480 552 37,500 4,080 Level FlightAware UK
01:07AM 57.1940 -4.3450 107° East 528 608 39,000  Climbing FlightAware
01:08AM 57.1779 -4.2480 107° East 478 550 37,500 -2,400 Descending FlightAware UK
01:08AM 57.1648 -4.1709 107° East 476 548 37,500 3,600 Level FlightAware UK
01:08AM 57.1620 -4.1550 107° East 525 604 39,000  Climbing FlightAware
01:08AM 57.1471 -4.0675 107° East 474 545 37,500 -2,580 Descending FlightAware UK
01:09AM 57.1340 -3.9907 107° East 476 548 37,500 3,900 Level FlightAware UK
01:09AM 57.1330 -3.9860 107° East 528 608 39,000  Climbing FlightAware
01:09AM 57.1163 -3.8884 107° East 476 548 37,500 -2,460 Descending FlightAware UK
01:09AM 57.1028 -3.8107 108° East 478 550 37,500 3,420 Level FlightAware UK
01:09AM 57.0990 -3.7900 108° East 529 609 39,000  Climbing FlightAware
01:10AM 57.0851 -3.7081 108° East 476 548 37,500 -2,700 Descending FlightAware UK
01:10AM 57.0716 -3.6313 108° East 478 550 37,500 3,720 Level FlightAware UK
01:10AM 57.0700 -3.6220 108° East 530 610 39,000  Climbing FlightAware
01:10AM 57.0536 -3.5288 108° East 476 548 37,500 -2,520 Descending FlightAware UK
01:11AM 57.0399 -3.4519 108° East 476 548 37,500 4,080 Level FlightAware UK
01:11AM 57.0400 -3.4510 108° East 531 611 39,000  Climbing FlightAware
01:11AM 57.0216 -3.3485 108° East 476 548 37,500 -2,400 Descending FlightAware UK
01:11AM 57.0081 -3.2725 108° East 474 545 37,500 3,600 Level FlightAware UK
01:12AM 57.0050 -3.2560 108° East 532 612 39,000  Climbing FlightAware
01:12AM 56.9896 -3.1690 108° East 476 548 37,500 -2,580 Descending FlightAware UK
01:12AM 56.9757 -3.0920 108° East 476 548 37,500 3,900 Level FlightAware UK
01:12AM 56.9750 -3.0880 108° East 531 611 39,000  Climbing FlightAware
01:13AM 56.9570 -2.9893 108° East 476 548 37,500 -2,460 Descending FlightAware UK
01:13AM 56.9429 -2.9114 108° East 476 548 37,500 4,260 Level FlightAware UK
01:13AM 56.9440 -2.9150 108° East 531 611 39,000  Climbing FlightAware
01:13AM 56.9289 -2.8342 108° East 474 545 37,500 -2,760 Descending FlightAware UK
01:13AM 56.9149 -2.7580 109° East 474 545 37,500 3,000 Level FlightAware UK
01:14AM 56.9080 -2.7200 109° East 534 615 39,000  Climbing FlightAware
01:14AM 56.8911 -2.6285 109° East 472 543 37,500 -2,520 Descending FlightAware UK
01:14AM 56.8767 -2.5511 109° East 472 543 37,500 4,080 Level FlightAware UK
01:14AM 56.8760 -2.5460 109° East 538 619 39,000  Climbing FlightAware
01:15AM 56.8621 -2.4727 109° East 474 545 37,500 -2,820 Descending FlightAware UK
01:15AM 56.8477 -2.3957 109° East 478 550 37,500 3,000 Level FlightAware UK
01:15AM 56.8390 -2.3530 109° East 543 625 39,000  Climbing FlightAware
01:15AM 56.8230 -2.2648 109° East 480 552 37,500 -2,520 Descending FlightAware UK
01:16AM 56.8084 -2.1869 109° East 480 552 37,500 4,080 Level FlightAware UK
01:16AM 56.8070 -2.1790 109° East 543 625 39,000  Climbing FlightAware
01:16AM 56.7885 -2.0824 109° East 480 552 37,500 -2,400 Descending FlightAware UK
01:16AM 56.7738 -2.0057 109° East 478 550 37,500 3,600 Level FlightAware UK
01:16AM 56.7690 -1.9820 109° East 543 625 39,000  Climbing FlightAware
01:17AM 56.7539 -1.9015 109° East 480 552 37,500 -2,580 Descending FlightAware UK
01:17AM 56.7390 -1.8242 109° East 480 552 37,500  Level FlightAware UK
01:17AM 56.7241 -1.7471 109° East 476 548 37,500  Level FlightAware UK
01:18AM 56.7093 -1.6701 109° East 472 543 37,500  Level FlightAware UK
01:18AM 56.6945 -1.5942 109° East 474 545 37,500  Level FlightAware UK
01:18AM 56.6794 -1.5174 110° East 478 550 37,500 4,260 Level FlightAware UK
01:18AM 56.6810 -1.5250 110° East 543 625 39,000  Climbing FlightAware
01:19AM 56.6642 -1.4404 110° East 476 548 37,500 -2,760 Descending FlightAware UK
01:19AM 56.6488 -1.3625 110° East 478 550 37,500 3,600 Level FlightAware UK
01:19AM 56.6470 -1.3530 110° East 541 623 39,000  Climbing FlightAware
01:19AM 56.6284 -1.2597 110° East 478 550 37,500 -2,580 Descending FlightAware UK
01:20AM 56.6131 -1.1827 110° East 478 550 37,500 3,180 Level FlightAware UK
01:20AM 56.6100 -1.1650 110° East 540 621 39,000  Climbing FlightAware
01:20AM 56.5874 -1.0535 110° East 476 548 37,500  Descending FlightAware UK
01:20AM 56.5740 -0.9890 110° East 540 621 39,000  Climbing FlightAware
01:21AM 56.5564 -0.9001 110° East 476 548 37,500 -2,700 Descending FlightAware UK
01:21AM 56.5409 -0.8236 110° East 476 548 37,500  Level FlightAware UK
01:21AM 56.5251 -0.7464 110° East 476 548 37,500 2,460 Level FlightAware UK
01:22AM 56.5250 -0.7450 110° East 542 624 39,000  Climbing FlightAware
01:22AM 56.4939 -0.5939 110° East 476 548 37,500 -2,520 Descending FlightAware UK
01:22AM 56.4783 -0.5178 110° East 478 550 37,500  Level FlightAware UK
01:22AM 56.4625 -0.4409 110° East 476 548 37,500  Level FlightAware UK
01:23AM 56.4467 -0.3652 111° Southeast 476 548 37,500  Level FlightAware UK
01:23AM 56.4308 -0.2886 111° Southeast 474 545 37,500  Level FlightAware UK
01:23AM 56.4151 -0.2139 111° Southeast 476 548 37,500 2,640 Level FlightAware UK
01:24AM 56.4050 -0.1660 111° Southeast 540 621 39,000  Climbing FlightAware
01:24AM 56.3832 -0.0623 111° Southeast 476 548 37,500 -2,400 Descending FlightAware UK
01:24AM 56.3673 0.0130 111° Southeast 474 545 37,500 4,500 Level FlightAware UK
01:24AM 56.3730 -0.0180 111° Southeast 539 620 39,000  Climbing FlightAware
01:25AM 56.3515 0.0882 111° Southeast 472 543 37,500 -2,700 Descending FlightAware UK
01:25AM 56.3355 0.1632 111° Southeast 472 543 37,500  Level FlightAware UK
01:25AM 56.3194 0.2381 111° Southeast 474 545 37,500  Level FlightAware UK
01:25AM 56.3030 0.3139 111° Southeast 476 548 37,500  Level FlightAware UK
01:26AM 56.2760 0.4391 111° Southeast 478 550 37,500  Level FlightAware UK
01:26AM 56.2541 0.5400 111° Southeast 476 548 37,500  Level FlightAware UK
01:27AM 56.2377 0.6157 111° Southeast 476 548 37,500  Level FlightAware UK
01:27AM 56.2217 0.6897 111° Southeast 474 545 37,500  Level FlightAware UK
01:27AM 56.2054 0.7643 111° Southeast 474 545 37,500  Level FlightAware UK
01:28AM 56.1780 0.8882 112° Southeast 474 545 37,500  Level FlightAware UK
01:28AM 56.1615 0.9624 112° Southeast 476 548 37,500  Level FlightAware UK
01:28AM 56.1393 1.0620 112° Southeast 476 548 37,500  Level FlightAware UK
01:29AM 56.1228 1.1360 112° Southeast 474 545 37,500  Level FlightAware UK
01:29AM 56.1062 1.2108 112° Southeast 472 543 37,500  Level FlightAware UK
01:29AM 56.0897 1.2846 112° Southeast 472 543 37,500  Level FlightAware UK
01:30AM 56.0730 1.3582 112° Southeast 474 545 37,500  Level FlightAware UK
01:30AM 56.0561 1.4326 112° Southeast 474 545 37,500  Level FlightAware UK
01:30AM 56.0395 1.5053 112° Southeast 474 545 37,500  Level FlightAware UK
01:31AM 56.0226 1.5789 112° Southeast 476 548 37,500  Level FlightAware UK
01:31AM 56.0055 1.6532 112° Southeast 474 545 37,500  Level FlightAware UK
01:31AM 55.9877 1.7258 114° Southeast 474 545 37,500  Level FlightAware UK
01:31AM 55.9697 1.7981 114° Southeast 472 543 37,500  Level FlightAware UK
01:32AM 55.9513 1.8709 114° Southeast 470 541 37,500  Level FlightAware UK
01:32AM 55.9334 1.9431 114° Southeast 472 543 37,500  Level FlightAware UK
01:32AM 55.9155 2.0154 114° Southeast 472 543 37,500  Level FlightAware UK
01:33AM 55.8978 2.0871 114° Southeast 476 548 37,500  Level FlightAware UK
01:33AM 55.8797 2.1605 114° Southeast 474 545 37,500  Level FlightAware UK
01:33AM 55.8618 2.2329 114° Southeast 474 545 37,500  Level FlightAware UK
01:34AM 55.8439 2.3053 114° Southeast 474 545 37,500  Level FlightAware UK
01:34AM 55.8261 2.3768 114° Southeast 474 545 37,500  Level FlightAware UK
01:34AM 55.8077 2.4496 114° Southeast 474 545 37,500  Level FlightAware UK
01:34AM 55.7893 2.5223 114° Southeast 472 543 37,500  Level FlightAware UK
01:35AM 55.7711 2.5942 114° Southeast 472 543 37,500  Level FlightAware UK
01:35AM 55.7529 2.6659 114° Southeast 474 545 37,500  Level FlightAware UK
01:35AM 55.7287 2.7610 114° Southeast 474 545 37,500  Level FlightAware UK
01:36AM 55.7104 2.8329 114° Southeast 474 545 37,500  Level FlightAware UK
01:36AM 55.6858 2.9299 114° Southeast 472 543 37,500  Level FlightAware UK
01:36AM 55.6673 3.0018 115° Southeast 472 543 37,500  Level FlightAware UK
01:37AM 55.6486 3.0737 115° Southeast 472 543 37,500  Level FlightAware UK
01:37AM 55.6297 3.1463 115° Southeast 472 543 37,500 2,460 Level FlightAware UK
01:37AM 55.6160 3.1990 115° Southeast 538 619 39,000  Climbing FlightAware
01:38AM 55.5926 3.2888 115° Southeast 474 545 37,500 -2,520 Descending FlightAware UK
01:38AM 55.5738 3.3605 115° Southeast 472 543 37,500 3,300 Level FlightAware UK
01:38AM 55.5720 3.3690 115° Southeast 537 618 39,000  Climbing FlightAware
01:38AM 55.5487 3.4567 115° Southeast 474 545 37,500 -2,760 Descending FlightAware UK
01:39AM 55.5299 3.5281 115° Southeast 472 543 37,500 3,600 Level FlightAware UK
01:39AM 55.5280 3.5360 115° Southeast 536 617 39,000  Climbing FlightAware
01:39AM 55.5047 3.6230 115° Southeast 472 543 37,500 -2,580 Descending FlightAware UK
01:39AM 55.4856 3.6947 115° Southeast 472 543 37,500 3,900 Level FlightAware UK
01:39AM 55.4900 3.6770 115° Southeast 535 616 39,000  Climbing FlightAware
01:40AM 55.4541 3.8128 115° Southeast 472 543 37,500  Descending FlightAware UK
01:40AM 55.4440 3.8510 115° Southeast 535 616 39,000  Climbing FlightAware
01:40AM 55.4163 3.9541 115° Southeast 472 543 37,500 -2,280 Descending FlightAware UK
01:41AM 55.3973 4.0256 115° Southeast 472 543 37,500  Level FlightAware UK
01:41AM 55.3783 4.0963 115° Southeast 472 543 37,500 2,520 Level FlightAware UK
01:41AM 55.3670 4.1380 115° Southeast 535 616 39,000  Climbing FlightAware
01:42AM 55.3339 4.2619 115° Southeast 472 543 37,500 -2,100 Descending FlightAware UK
01:42AM 55.3149 4.3323 115° Southeast 470 541 37,500 3,600 Level FlightAware UK
01:42AM 55.3170 4.3260 115° Southeast 535 616 39,000  Climbing FlightAware
01:43AM 55.2831 4.4495 115° Southeast 470 541 37,500  Descending FlightAware UK
01:43AM 55.2630 4.5230 115° Southeast 535 616 39,000  Climbing FlightAware
01:43AM 55.2387 4.6134 115° Southeast 470 541 37,500  Descending FlightAware UK
01:44AM 55.2160 4.6950 115° Southeast 532 612 39,000  Climbing FlightAware
01:44AM 55.1873 4.8001 115° Southeast 470 541 37,500  Descending FlightAware UK
01:44AM 55.1720 4.8540 115° Southeast 533 613 39,000 1,440 Climbing FlightAware
01:45AM 55.1230 5.0320 116° Southeast 534 615 39,000 -1,500 Level FlightAware
01:45AM 55.1034 5.1035 116° Southeast 472 543 37,500 -2,700 Descending FlightAware UK
01:46AM 55.0835 5.1744 116° Southeast 472 543 37,500 3,720 Level FlightAware UK
01:46AM 55.0800 5.1860 116° Southeast 535 616 39,000  Climbing FlightAware
01:46AM 55.0508 5.2908 116° Southeast 472 543 37,500  Descending FlightAware UK
01:47AM 55.0300 5.3620 116° Southeast 534 615 39,000  Climbing FlightAware
01:47AM 55.0044 5.4540 116° Southeast 470 541 37,500  Descending FlightAware UK
01:47AM 54.9860 5.5180 116° Southeast 538 619 39,000  Climbing FlightAware
01:47AM 54.9647 5.5933 116° Southeast 470 541 37,500 -2,580 Descending FlightAware UK
01:48AM 54.9448 5.6628 116° Southeast 472 543 37,500 3,900 Level FlightAware UK
01:48AM 54.9420 5.6730 116° Southeast 538 619 39,000 1,800 Climbing FlightAware
01:49AM 54.8940 5.8390 117° Southeast 538 619 39,000  Level FlightAware
01:49AM 54.8500 5.9910 117° Southeast 537 618 39,000  Level FlightAware
01:50AM 54.8030 6.1540 117° Southeast 536 617 39,000 -1,260 Level FlightAware
01:50AM 54.7636 6.2857 117° Southeast 1 1 37,500  Descending FlightAware UK
01:51AM 54.7540 6.3200 117° Southeast 535 616 39,000  Climbing FlightAware
01:51AM 54.7292 6.4008 117° Southeast 1 1 37,500 -2,580 Descending FlightAware UK
01:51AM 54.7087 6.4691 117° Southeast 1 1 37,500 3,900 Level FlightAware UK
01:51AM 54.7080 6.4730 117° Southeast 533 613 39,000  Climbing FlightAware
01:52AM 54.6816 6.5599 117° Southeast 1 1 37,500 -2,460 Descending FlightAware UK
01:52AM 54.6612 6.6280 117° Southeast 1 1 37,500 3,420 Level FlightAware UK
01:52AM 54.6570 6.6470 117° Southeast 534 615 39,000  Climbing FlightAware
01:52AM 54.6341 6.7185 117° Southeast 1 1 37,500 -2,700 Descending FlightAware UK
01:53AM 54.6137 6.7866 117° Southeast 1 1 37,500 3,720 Level FlightAware UK
01:53AM 54.6120 6.7970 117° Southeast 534 615 39,000  Climbing FlightAware
01:53AM 54.5866 6.8771 117° Southeast 1 1 37,500  Descending FlightAware UK
01:53AM 54.5680 6.9440 117° Southeast 531 611 39,000 1,320 Climbing FlightAware
01:54AM 54.5160 7.1180 117° Southeast 537 618 39,000  Level FlightAware
01:55AM 54.4790 7.2750 112° Southeast 537 618 39,000  Level FlightAware
01:56AM 54.4360 7.4550 112° Southeast 540 621 39,000  Level FlightAware
01:56AM 54.3970 7.6130 113° Southeast 539 620 39,000  Level FlightAware
01:57AM 54.3530 7.7890 113° Southeast 540 621 39,000  Level FlightAware
01:58AM 54.3130 7.9470 113° Southeast 540 621 39,000  Level FlightAware
01:58AM 54.2740 8.1020 113° Southeast 539 620 39,000  Level FlightAware
01:59AM 54.2300 8.2790 113° Southeast 538 619 39,000  Level FlightAware
02:00AM 54.1910 8.4330 113° Southeast 539 620 39,000  Level FlightAware
02:01AM 54.1460 8.6090 114° Southeast 537 618 39,000  Level FlightAware
02:01AM 54.1060 8.7650 114° Southeast 538 619 39,000 -240 Level FlightAware
02:02AM 54.0650 8.9210 114° Southeast 540 621 38,700 -660 Descending FlightAware
02:03AM 54.0200 9.0960 114° Southeast 543 625 38,100 -540 Descending FlightAware
02:03AM 53.9790 9.2520 114° Southeast 546 628 38,000 -120 Descending FlightAware
02:04AM 53.9370 9.4100 114° Southeast 545 627 38,000  Level FlightAware
02:05AM 53.8930 9.5740 114° Southeast 543 625 38,000  Level FlightAware
02:05AM 53.8510 9.7330 114° Southeast 542 624 38,000  Level FlightAware
02:06AM 53.8030 9.9100 115° Southeast 543 625 38,000 -120 Level FlightAware
02:07AM 53.7610 10.0640 115° Southeast 544 626 37,900 -840 Descending FlightAware
02:07AM 53.7180 10.2180 115° Southeast 545 627 36,900 -1,500 Descending FlightAware
02:08AM 53.6710 10.3880 115° Southeast 541 623 35,800 -1,560 Descending FlightAware
02:09AM 53.6290 10.5400 115° Southeast 542 624 34,700 -1,740 Descending FlightAware
02:10AM 53.5810 10.7130 115° Southeast 537 618 33,400 -2,220 Descending FlightAware
02:10AM 53.5380 10.8630 116° Southeast 535 616 31,600 -2,520 Descending FlightAware
02:11AM 53.4950 11.0140 116° Southeast 530 610 30,100 -2,100 Descending FlightAware
02:12AM 53.4560 11.1530 115° Southeast 525 604 28,800 -2,100 Descending FlightAware
02:12AM 53.4070 11.3220 116° Southeast 516 594 27,200 -2,160 Descending FlightAware
02:13AM 53.3650 11.4670 116° Southeast 504 580 25,800 -2,160 Descending FlightAware
02:14AM 53.3210 11.6200 116° Southeast 498 573 24,200 -2,220 Descending FlightAware
02:14AM 53.2800 11.7590 116° Southeast 484 557 22,700 -2,220 Descending FlightAware
02:15AM 53.2400 11.8930 116° Southeast 474 545 21,300 -2,220 Descending FlightAware
02:16AM 53.1960 12.0410 116° Southeast 461 531 19,600 -2,220 Descending FlightAware
02:17AM 53.1580 12.1690 116° Southeast 447 514 18,200 -1,980 Descending FlightAware
02:17AM 53.1200 12.2960 116° Southeast 434 499 16,800 -1,920 Descending FlightAware
02:18AM 53.0840 12.4170 116° Southeast 422 486 15,500 -1,920 Descending FlightAware
02:19AM 53.0460 12.5420 117° Southeast 410 472 14,100 -1,980 Descending FlightAware
02:19AM 53.0050 12.6750 117° Southeast 400 460 12,600 -1,920 Descending FlightAware
02:20AM 52.9780 12.7630 117° Southeast 392 451 11,600 -1,500 Descending FlightAware
02:21AM 52.9410 12.8860 116° Southeast 381 438 10,600 -960 Descending FlightAware
02:22AM 52.9060 12.9980 117° Southeast 357 411 10,200 -480 Descending FlightAware
02:22AM 52.8770 13.0900 118° Southeast 331 381 10,000 -720 Descending FlightAware
02:23AM 52.8560 13.1590 117° Southeast 331 381 9,400 -1,140 Descending FlightAware
02:23AM 52.8380 13.2160 118° Southeast 322 371 9,000 -780 Descending FlightAware
02:24AM 52.8190 13.2790 117° Southeast 302 348 8,700 -720 Descending FlightAware
02:24AM 52.8100 13.3050 120° Southeast 292 336 8,500 -1,200 Descending FlightAware
02:24AM 52.7940 13.3570 117° Southeast 284 327 7,900 -1,560 Descending FlightAware
02:25AM 52.7760 13.4150 117° Southeast 275 316 7,100 -1,680 Descending FlightAware
02:25AM 52.7620 13.4590 118° Southeast 275 316 6,400 -1,320 Descending FlightAware
02:26AM 52.7500 13.5170 109° East 267 307 5,900 -1,080 Descending FlightAware
02:26AM 52.7460 13.5480 102° East 265 305 5,600 -1,080 Descending FlightAware
02:26AM 52.7390 13.5950 104° East 265 305 5,200 -1,020 Descending FlightAware
02:27AM 52.7250 13.6530 112° Southeast 261 300 4,700 -1,140 Descending FlightAware
02:27AM 52.7130 13.7000 113° Southeast 259 298 4,200 -1,020 Descending FlightAware
02:28AM 52.7000 13.7540 112° Southeast 259 298 3,800 -540 Descending FlightAware
02:28AM 52.6860 13.8080 113° Southeast 257 296 3,700 -120 Descending FlightAware
02:29AM 52.6750 13.8440 117° Southeast 237 273 3,700  Level FlightAware
02:29AM 52.6600 13.8630 142° Southeast 228 262 3,700 -360 Level FlightAware
02:32AM 52.5634 13.3087 254° West  Level Estimated
02:32AM 52.5980 13.6810 254° West 194 223 2,700  Level FlightAware
02:32AM 52.5960 13.6580 262° West 182 209 2,700  Level FlightAware
02:32AM 52.5930 13.6260 261° West 168 193 2,700  Level FlightAware
02:32AM 52.5910 13.6070 260° West 165 190 2,700  Level FlightAware
02:33AM 52.5880 13.5770 261° West 163 188 2,700 -120 Level FlightAware
02:33AM 52.5850 13.5420 262° West 156 180 2,600 -480 Descending FlightAware
02:34AM 52.5820 13.5110 261° West 155 178 2,300 -780 Descending FlightAware
02:34AM 52.5800 13.4950 258° West 153 176 2,100 -840 Descending FlightAware
02:35AM 52.5770 13.4610 262° West 149 171 1,700 -840 Descending FlightAware
02:35AM 52.5730 13.4290 258° West 133 153 1,300 -780 Descending FlightAware
02:35AM 52.5710 13.4030 263° West 136 157 1,000 -780 Descending FlightAware
02:36AM 52.5680 13.3730 261° West 132 152 600 -660 Descending FlightAware
02:36AM 52.5660 13.3500 262° West 133 153 400 -480 Descending FlightAware
02:40AM 52.5597 13.2877 125° Southeast  Level Estimated
02:41AM 52.5597 13.2877 125° Southeast  Level Estimated
02:42AM 52.5597 13.2877 125° Southeast  Level Estimated
02:43AM 52.5597 13.2877 125° Southeast  Level Estimated
02:44AM 52.5597 13.2877 125° Southeast  Level Estimated
02:45AM 52.5597 13.2877 125° Southeast  Level Estimated